sensor_id;sensor_type;location;lat;lon;timestamp;temperature;humidity
7530;DHT22;3806;52.270;10.544;2023-02-28T00:00:29;2.20;95.30
7530;DHT22;3806;52.270;10.544;2023-02-28T00:02:55;2.20;95.40
7530;DHT22;3806;52.270;10.544;2023-02-28T00:05:22;2.20;95.50
7530;DHT22;3806;52.270;10.544;2023-02-28T00:07:49;2.20;95.60
7530;DHT22;3806;52.270;10.544;2023-02-28T00:10:21;2.10;95.50
7530;DHT22;3806;52.270;10.544;2023-02-28T00:12:52;2.10;95.60
7530;DHT22;3806;52.270;10.544;2023-02-28T00:15:18;2.10;95.70
7530;DHT22;3806;52.270;10.544;2023-02-28T00:17:44;2.10;95.90
7530;DHT22;3806;52.270;10.544;2023-02-28T00:20:10;2.10;96.10
7530;DHT22;3806;52.270;10.544;2023-02-28T00:22:48;2.10;96.10
7530;DHT22;3806;52.270;10.544;2023-02-28T00:25:18;2.10;96.20
7530;DHT22;3806;52.270;10.544;2023-02-28T00:27:44;2.00;96.30
7530;DHT22;3806;52.270;10.544;2023-02-28T00:30:13;2.00;96.40
7530;DHT22;3806;52.270;10.544;2023-02-28T00:32:39;2.00;96.60
7530;DHT22;3806;52.270;10.544;2023-02-28T00:35:05;1.90;96.60
7530;DHT22;3806;52.270;10.544;2023-02-28T00:37:31;1.90;96.70
7530;DHT22;3806;52.270;10.544;2023-02-28T00:39:57;1.90;96.60
7530;DHT22;3806;52.270;10.544;2023-02-28T00:42:23;1.90;96.60
7530;DHT22;3806;52.270;10.544;2023-02-28T00:44:49;1.90;96.50
7530;DHT22;3806;52.270;10.544;2023-02-28T00:47:14;1.90;96.60
7530;DHT22;3806;52.270;10.544;2023-02-28T00:49:40;1.80;96.60
7530;DHT22;3806;52.270;10.544;2023-02-28T00:52:06;1.80;96.70
7530;DHT22;3806;52.270;10.544;2023-02-28T00:54:31;1.90;96.80
7530;DHT22;3806;52.270;10.544;2023-02-28T00:56:57;1.90;96.80
7530;DHT22;3806;52.270;10.544;2023-02-28T00:59:22;1.90;96.80
7530;DHT22;3806;52.270;10.544;2023-02-28T01:01:48;1.90;96.70
7530;DHT22;3806;52.270;10.544;2023-02-28T01:04:14;1.90;96.70
7530;DHT22;3806;52.270;10.544;2023-02-28T01:06:39;2.00;96.70
7530;DHT22;3806;52.270;10.544;2023-02-28T01:09:05;1.90;96.70
7530;DHT22;3806;52.270;10.544;2023-02-28T01:11:32;2.00;96.80
7530;DHT22;3806;52.270;10.544;2023-02-28T01:13:58;2.00;96.90
7530;DHT22;3806;52.270;10.544;2023-02-28T01:16:24;2.00;96.90
7530;DHT22;3806;52.270;10.544;2023-02-28T01:18:50;2.00;97.00
7530;DHT22;3806;52.270;10.544;2023-02-28T01:21:18;2.00;97.30
7530;DHT22;3806;52.270;10.544;2023-02-28T01:23:44;2.00;97.00
7530;DHT22;3806;52.270;10.544;2023-02-28T01:26:27;1.90;97.10
7530;DHT22;3806;52.270;10.544;2023-02-28T01:28:53;1.90;97.20
7530;DHT22;3806;52.270;10.544;2023-02-28T01:31:19;1.90;97.30
7530;DHT22;3806;52.270;10.544;2023-02-28T01:33:45;1.90;97.30
7530;DHT22;3806;52.270;10.544;2023-02-28T01:36:15;1.90;97.40
7530;DHT22;3806;52.270;10.544;2023-02-28T01:38:40;2.00;97.40
7530;DHT22;3806;52.270;10.544;2023-02-28T01:41:07;2.00;97.50
7530;DHT22;3806;52.270;10.544;2023-02-28T01:46:07;2.00;97.40
7530;DHT22;3806;52.270;10.544;2023-02-28T01:48:36;2.00;97.40
7530;DHT22;3806;52.270;10.544;2023-02-28T01:51:07;2.00;97.40
7530;DHT22;3806;52.270;10.544;2023-02-28T01:53:39;2.00;97.40
7530;DHT22;3806;52.270;10.544;2023-02-28T01:56:11;2.00;97.30
7530;DHT22;3806;52.270;10.544;2023-02-28T01:58:38;2.00;97.60
7530;DHT22;3806;52.270;10.544;2023-02-28T02:01:04;2.00;97.40
7530;DHT22;3806;52.270;10.544;2023-02-28T02:03:30;1.90;97.30
7530;DHT22;3806;52.270;10.544;2023-02-28T02:05:56;1.90;97.30
7530;DHT22;3806;52.270;10.544;2023-02-28T02:08:25;1.90;97.40
7530;DHT22;3806;52.270;10.544;2023-02-28T02:10:52;1.70;97.40
7530;DHT22;3806;52.270;10.544;2023-02-28T02:17:01;1.80;97.50
7530;DHT22;3806;52.270;10.544;2023-02-28T02:23:01;1.70;97.70
7530;DHT22;3806;52.270;10.544;2023-02-28T02:25:52;1.60;97.70
7530;DHT22;3806;52.270;10.544;2023-02-28T02:31:26;1.60;97.90
7530;DHT22;3806;52.270;10.544;2023-02-28T02:37:22;1.70;98.10
7530;DHT22;3806;52.270;10.544;2023-02-28T02:40:11;1.70;98.10
7530;DHT22;3806;52.270;10.544;2023-02-28T02:42:52;1.70;97.90
7530;DHT22;3806;52.270;10.544;2023-02-28T02:45:34;1.70;97.70
7530;DHT22;3806;52.270;10.544;2023-02-28T02:48:06;1.70;97.50
7530;DHT22;3806;52.270;10.544;2023-02-28T02:50:39;1.70;97.40
7530;DHT22;3806;52.270;10.544;2023-02-28T02:53:07;1.70;97.40
7530;DHT22;3806;52.270;10.544;2023-02-28T02:55:40;1.70;97.40
7530;DHT22;3806;52.270;10.544;2023-02-28T02:58:16;1.70;97.50
7530;DHT22;3806;52.270;10.544;2023-02-28T03:00:50;1.70;97.40
7530;DHT22;3806;52.270;10.544;2023-02-28T03:03:19;1.80;97.40
7530;DHT22;3806;52.270;10.544;2023-02-28T03:05:58;1.80;97.20
7530;DHT22;3806;52.270;10.544;2023-02-28T03:08:25;1.80;97.30
7530;DHT22;3806;52.270;10.544;2023-02-28T03:10:55;1.80;97.50
7530;DHT22;3806;52.270;10.544;2023-02-28T03:16:35;1.80;97.80
7530;DHT22;3806;52.270;10.544;2023-02-28T03:19:19;1.80;97.80
7530;DHT22;3806;52.270;10.544;2023-02-28T03:27:29;1.90;97.20
7530;DHT22;3806;52.270;10.544;2023-02-28T03:30:05;1.90;96.90
7530;DHT22;3806;52.270;10.544;2023-02-28T03:35:48;1.90;96.50
7530;DHT22;3806;52.270;10.544;2023-02-28T03:38:20;1.90;96.10
7530;DHT22;3806;52.270;10.544;2023-02-28T03:40:58;1.90;96.20
7530;DHT22;3806;52.270;10.544;2023-02-28T03:43:29;1.90;95.70
7530;DHT22;3806;52.270;10.544;2023-02-28T03:45:55;1.90;95.40
7530;DHT22;3806;52.270;10.544;2023-02-28T03:48:45;2.00;95.10
7530;DHT22;3806;52.270;10.544;2023-02-28T03:51:12;2.00;95.00
7530;DHT22;3806;52.270;10.544;2023-02-28T03:53:44;2.10;94.80
7530;DHT22;3806;52.270;10.544;2023-02-28T03:56:19;2.10;94.60
7530;DHT22;3806;52.270;10.544;2023-02-28T03:59:07;2.10;94.50
7530;DHT22;3806;52.270;10.544;2023-02-28T04:01:41;2.10;94.50
7530;DHT22;3806;52.270;10.544;2023-02-28T04:04:08;2.10;94.70
7530;DHT22;3806;52.270;10.544;2023-02-28T04:06:37;2.20;94.80
7530;DHT22;3806;52.270;10.544;2023-02-28T04:09:04;2.10;95.10
7530;DHT22;3806;52.270;10.544;2023-02-28T04:11:41;2.20;94.90
7530;DHT22;3806;52.270;10.544;2023-02-28T04:14:08;2.20;94.90
7530;DHT22;3806;52.270;10.544;2023-02-28T04:16:36;2.20;95.00
7530;DHT22;3806;52.270;10.544;2023-02-28T04:19:04;2.20;95.00
7530;DHT22;3806;52.270;10.544;2023-02-28T04:21:36;2.20;95.00
7530;DHT22;3806;52.270;10.544;2023-02-28T04:24:02;2.20;94.80
7530;DHT22;3806;52.270;10.544;2023-02-28T04:26:33;2.30;94.70
7530;DHT22;3806;52.270;10.544;2023-02-28T04:29:00;2.30;94.60
7530;DHT22;3806;52.270;10.544;2023-02-28T04:31:25;2.30;94.40
7530;DHT22;3806;52.270;10.544;2023-02-28T04:33:51;2.30;94.40
7530;DHT22;3806;52.270;10.544;2023-02-28T04:36:17;2.40;94.30
7530;DHT22;3806;52.270;10.544;2023-02-28T04:38:43;2.30;94.30
7530;DHT22;3806;52.270;10.544;2023-02-28T04:41:09;2.30;94.50
7530;DHT22;3806;52.270;10.544;2023-02-28T04:43:35;2.20;94.80
7530;DHT22;3806;52.270;10.544;2023-02-28T04:46:03;2.20;95.00
7530;DHT22;3806;52.270;10.544;2023-02-28T04:48:30;2.10;95.00
7530;DHT22;3806;52.270;10.544;2023-02-28T04:51:16;2.10;94.90
7530;DHT22;3806;52.270;10.544;2023-02-28T04:53:42;2.10;94.90
7530;DHT22;3806;52.270;10.544;2023-02-28T04:56:11;2.10;94.80
7530;DHT22;3806;52.270;10.544;2023-02-28T04:58:37;2.10;94.90
7530;DHT22;3806;52.270;10.544;2023-02-28T05:01:18;2.10;94.80
7530;DHT22;3806;52.270;10.544;2023-02-28T05:03:44;2.00;94.80
7530;DHT22;3806;52.270;10.544;2023-02-28T05:06:10;2.00;94.80
7530;DHT22;3806;52.270;10.544;2023-02-28T05:08:36;2.10;94.80
7530;DHT22;3806;52.270;10.544;2023-02-28T05:11:02;2.00;94.80
7530;DHT22;3806;52.270;10.544;2023-02-28T05:13:28;2.00;94.90
7530;DHT22;3806;52.270;10.544;2023-02-28T05:15:54;2.00;94.80
7530;DHT22;3806;52.270;10.544;2023-02-28T05:18:20;2.00;94.70
7530;DHT22;3806;52.270;10.544;2023-02-28T05:20:46;2.00;94.70
7530;DHT22;3806;52.270;10.544;2023-02-28T05:23:19;2.00;94.70
7530;DHT22;3806;52.270;10.544;2023-02-28T05:25:45;2.00;94.70
7530;DHT22;3806;52.270;10.544;2023-02-28T05:28:13;1.90;94.80
7530;DHT22;3806;52.270;10.544;2023-02-28T05:30:39;1.90;94.90
7530;DHT22;3806;52.270;10.544;2023-02-28T05:33:05;1.90;95.20
7530;DHT22;3806;52.270;10.544;2023-02-28T05:35:33;1.90;95.20
7530;DHT22;3806;52.270;10.544;2023-02-28T05:38:02;1.90;95.20
7530;DHT22;3806;52.270;10.544;2023-02-28T05:40:31;2.00;95.10
7530;DHT22;3806;52.270;10.544;2023-02-28T05:42:56;2.00;95.10
7530;DHT22;3806;52.270;10.544;2023-02-28T05:45:21;2.00;95.30
7530;DHT22;3806;52.270;10.544;2023-02-28T05:47:48;2.00;95.30
7530;DHT22;3806;52.270;10.544;2023-02-28T05:50:13;2.00;95.10
7530;DHT22;3806;52.270;10.544;2023-02-28T05:52:39;1.90;95.00
7530;DHT22;3806;52.270;10.544;2023-02-28T05:55:05;1.90;95.10
7530;DHT22;3806;52.270;10.544;2023-02-28T05:57:33;1.90;95.10
7530;DHT22;3806;52.270;10.544;2023-02-28T05:59:58;1.80;94.90
7530;DHT22;3806;52.270;10.544;2023-02-28T06:02:24;1.80;94.80
7530;DHT22;3806;52.270;10.544;2023-02-28T06:04:49;1.80;94.80
7530;DHT22;3806;52.270;10.544;2023-02-28T06:07:15;1.80;94.70
7530;DHT22;3806;52.270;10.544;2023-02-28T06:09:42;1.80;94.90
7530;DHT22;3806;52.270;10.544;2023-02-28T06:12:09;1.80;94.90
7530;DHT22;3806;52.270;10.544;2023-02-28T06:14:38;1.80;95.00
7530;DHT22;3806;52.270;10.544;2023-02-28T06:17:04;1.80;94.90
7530;DHT22;3806;52.270;10.544;2023-02-28T06:19:30;1.80;94.70
7530;DHT22;3806;52.270;10.544;2023-02-28T06:21:56;1.80;94.50
7530;DHT22;3806;52.270;10.544;2023-02-28T06:24:24;1.90;94.50
7530;DHT22;3806;52.270;10.544;2023-02-28T06:26:50;1.80;94.30
7530;DHT22;3806;52.270;10.544;2023-02-28T06:29:16;1.80;94.30
7530;DHT22;3806;52.270;10.544;2023-02-28T06:31:45;1.90;94.40
7530;DHT22;3806;52.270;10.544;2023-02-28T06:34:11;2.00;94.40
7530;DHT22;3806;52.270;10.544;2023-02-28T06:36:38;2.00;94.20
7530;DHT22;3806;52.270;10.544;2023-02-28T06:39:04;2.10;94.10
7530;DHT22;3806;52.270;10.544;2023-02-28T06:41:30;2.10;93.90
7530;DHT22;3806;52.270;10.544;2023-02-28T06:43:55;2.10;93.70
7530;DHT22;3806;52.270;10.544;2023-02-28T06:46:21;2.10;93.40
7530;DHT22;3806;52.270;10.544;2023-02-28T06:48:47;2.20;93.30
7530;DHT22;3806;52.270;10.544;2023-02-28T06:51:15;2.20;93.20
7530;DHT22;3806;52.270;10.544;2023-02-28T06:53:41;2.20;93.20
7530;DHT22;3806;52.270;10.544;2023-02-28T06:56:10;2.20;93.20
7530;DHT22;3806;52.270;10.544;2023-02-28T06:58:38;2.30;93.20
7530;DHT22;3806;52.270;10.544;2023-02-28T07:01:07;2.40;93.00
7530;DHT22;3806;52.270;10.544;2023-02-28T07:03:35;2.50;92.90
7530;DHT22;3806;52.270;10.544;2023-02-28T07:06:01;2.60;92.80
7530;DHT22;3806;52.270;10.544;2023-02-28T07:08:29;2.70;92.50
7530;DHT22;3806;52.270;10.544;2023-02-28T07:10:55;2.80;92.30
7530;DHT22;3806;52.270;10.544;2023-02-28T07:13:24;3.00;92.20
7530;DHT22;3806;52.270;10.544;2023-02-28T07:15:58;3.10;91.90
7530;DHT22;3806;52.270;10.544;2023-02-28T07:18:24;3.30;91.60
7530;DHT22;3806;52.270;10.544;2023-02-28T07:20:52;3.30;91.20
7530;DHT22;3806;52.270;10.544;2023-02-28T07:23:17;3.50;90.90
7530;DHT22;3806;52.270;10.544;2023-02-28T07:25:43;3.50;90.60
7530;DHT22;3806;52.270;10.544;2023-02-28T07:28:09;3.60;90.40
7530;DHT22;3806;52.270;10.544;2023-02-28T07:30:34;3.70;90.10
7530;DHT22;3806;52.270;10.544;2023-02-28T07:33:00;3.70;89.90
7530;DHT22;3806;52.270;10.544;2023-02-28T07:35:26;3.80;89.30
7530;DHT22;3806;52.270;10.544;2023-02-28T07:37:51;3.80;88.30
7530;DHT22;3806;52.270;10.544;2023-02-28T07:40:17;3.80;87.40
7530;DHT22;3806;52.270;10.544;2023-02-28T07:42:43;3.80;87.30
7530;DHT22;3806;52.270;10.544;2023-02-28T07:45:10;3.80;87.20
7530;DHT22;3806;52.270;10.544;2023-02-28T07:47:38;3.90;87.20
7530;DHT22;3806;52.270;10.544;2023-02-28T07:50:05;3.90;86.80
7530;DHT22;3806;52.270;10.544;2023-02-28T07:52:30;4.00;86.60
7530;DHT22;3806;52.270;10.544;2023-02-28T07:54:56;4.10;86.10
7530;DHT22;3806;52.270;10.544;2023-02-28T07:57:22;4.30;86.00
7530;DHT22;3806;52.270;10.544;2023-02-28T07:59:47;4.60;85.20
7530;DHT22;3806;52.270;10.544;2023-02-28T08:02:17;4.80;83.20
7530;DHT22;3806;52.270;10.544;2023-02-28T08:04:43;5.00;81.60
7530;DHT22;3806;52.270;10.544;2023-02-28T08:07:09;5.20;80.00
7530;DHT22;3806;52.270;10.544;2023-02-28T08:09:38;5.20;79.00
7530;DHT22;3806;52.270;10.544;2023-02-28T08:12:04;5.60;79.20
7530;DHT22;3806;52.270;10.544;2023-02-28T08:14:30;5.80;77.10
7530;DHT22;3806;52.270;10.544;2023-02-28T08:16:55;5.90;75.60
7530;DHT22;3806;52.270;10.544;2023-02-28T08:19:21;6.00;75.20
7530;DHT22;3806;52.270;10.544;2023-02-28T08:21:46;6.10;74.10
7530;DHT22;3806;52.270;10.544;2023-02-28T08:24:12;6.10;72.90
7530;DHT22;3806;52.270;10.544;2023-02-28T08:26:37;6.10;72.30
7530;DHT22;3806;52.270;10.544;2023-02-28T08:29:03;6.10;71.60
7530;DHT22;3806;52.270;10.544;2023-02-28T08:31:30;6.40;73.80
7530;DHT22;3806;52.270;10.544;2023-02-28T08:33:56;8.60;73.20
7530;DHT22;3806;52.270;10.544;2023-02-28T08:36:25;11.10;60.60
7530;DHT22;3806;52.270;10.544;2023-02-28T08:38:51;14.10;49.60
7530;DHT22;3806;52.270;10.544;2023-02-28T08:41:16;16.10;40.00
7530;DHT22;3806;52.270;10.544;2023-02-28T08:43:42;17.50;35.20
7530;DHT22;3806;52.270;10.544;2023-02-28T08:46:12;19.50;31.60
7530;DHT22;3806;52.270;10.544;2023-02-28T08:48:38;21.70;28.20
7530;DHT22;3806;52.270;10.544;2023-02-28T08:51:06;23.70;25.90
7530;DHT22;3806;52.270;10.544;2023-02-28T08:53:32;25.30;23.60
7530;DHT22;3806;52.270;10.544;2023-02-28T08:55:58;26.50;21.70
7530;DHT22;3806;52.270;10.544;2023-02-28T08:58:24;27.30;20.40
7530;DHT22;3806;52.270;10.544;2023-02-28T09:00:50;28.00;19.80
7530;DHT22;3806;52.270;10.544;2023-02-28T09:03:16;28.30;19.30
7530;DHT22;3806;52.270;10.544;2023-02-28T09:05:53;28.60;18.30
7530;DHT22;3806;52.270;10.544;2023-02-28T09:08:19;28.90;18.10
7530;DHT22;3806;52.270;10.544;2023-02-28T09:10:45;29.20;17.80
7530;DHT22;3806;52.270;10.544;2023-02-28T09:13:10;29.40;17.30
7530;DHT22;3806;52.270;10.544;2023-02-28T09:15:37;29.80;17.20
7530;DHT22;3806;52.270;10.544;2023-02-28T09:18:05;30.20;16.50
7530;DHT22;3806;52.270;10.544;2023-02-28T09:20:31;30.30;16.60
7530;DHT22;3806;52.270;10.544;2023-02-28T09:22:59;30.30;16.50
7530;DHT22;3806;52.270;10.544;2023-02-28T09:25:24;30.60;16.30
7530;DHT22;3806;52.270;10.544;2023-02-28T09:27:50;30.80;15.90
7530;DHT22;3806;52.270;10.544;2023-02-28T09:30:15;30.80;16.00
7530;DHT22;3806;52.270;10.544;2023-02-28T09:32:41;31.00;15.90
7530;DHT22;3806;52.270;10.544;2023-02-28T09:35:07;31.80;15.70
7530;DHT22;3806;52.270;10.544;2023-02-28T09:37:38;32.60;15.60
7530;DHT22;3806;52.270;10.544;2023-02-28T09:40:04;33.40;15.00
7530;DHT22;3806;52.270;10.544;2023-02-28T09:42:33;34.10;14.60
7530;DHT22;3806;52.270;10.544;2023-02-28T09:45:03;34.60;14.00
7530;DHT22;3806;52.270;10.544;2023-02-28T09:47:38;34.40;13.90
7530;DHT22;3806;52.270;10.544;2023-02-28T09:50:28;34.50;13.70
7530;DHT22;3806;52.270;10.544;2023-02-28T09:52:55;34.60;13.60
7530;DHT22;3806;52.270;10.544;2023-02-28T09:55:42;35.00;13.60
7530;DHT22;3806;52.270;10.544;2023-02-28T10:01:05;34.50;12.40
7530;DHT22;3806;52.270;10.544;2023-02-28T10:03:36;33.10;12.80
7530;DHT22;3806;52.270;10.544;2023-02-28T10:06:11;31.00;13.30
7530;DHT22;3806;52.270;10.544;2023-02-28T10:11:20;31.60;13.50
7530;DHT22;3806;52.270;10.544;2023-02-28T10:14:05;32.40;12.60
7530;DHT22;3806;52.270;10.544;2023-02-28T10:16:39;33.30;12.40
7530;DHT22;3806;52.270;10.544;2023-02-28T10:19:16;33.00;12.40
7530;DHT22;3806;52.270;10.544;2023-02-28T10:21:49;30.60;13.10
7530;DHT22;3806;52.270;10.544;2023-02-28T10:24:39;27.70;14.30
7530;DHT22;3806;52.270;10.544;2023-02-28T10:27:23;26.50;15.50
7530;DHT22;3806;52.270;10.544;2023-02-28T10:29:54;26.40;15.20
7530;DHT22;3806;52.270;10.544;2023-02-28T10:32:28;24.80;15.60
7530;DHT22;3806;52.270;10.544;2023-02-28T10:37:32;22.30;16.60
7530;DHT22;3806;52.270;10.544;2023-02-28T10:40:05;20.80;17.60
7530;DHT22;3806;52.270;10.544;2023-02-28T10:42:32;19.20;17.20
7530;DHT22;3806;52.270;10.544;2023-02-28T10:45:15;17.80;17.70
7530;DHT22;3806;52.270;10.544;2023-02-28T10:47:59;16.70;18.50
7530;DHT22;3806;52.270;10.544;2023-02-28T10:50:28;16.70;19.20
7530;DHT22;3806;52.270;10.544;2023-02-28T10:52:55;18.10;18.60
7530;DHT22;3806;52.270;10.544;2023-02-28T10:55:24;20.30;17.30
7530;DHT22;3806;52.270;10.544;2023-02-28T10:57:51;22.50;16.10
7530;DHT22;3806;52.270;10.544;2023-02-28T11:00:20;24.60;15.60
7530;DHT22;3806;52.270;10.544;2023-02-28T11:02:47;26.60;14.30
7530;DHT22;3806;52.270;10.544;2023-02-28T11:05:28;27.60;13.70
7530;DHT22;3806;52.270;10.544;2023-02-28T11:07:57;28.10;13.60
7530;DHT22;3806;52.270;10.544;2023-02-28T11:10:27;27.50;13.00
7530;DHT22;3806;52.270;10.544;2023-02-28T11:12:55;25.50;13.20
7530;DHT22;3806;52.270;10.544;2023-02-28T11:15:27;23.80;14.00
7530;DHT22;3806;52.270;10.544;2023-02-28T11:20:25;20.20;15.50
7530;DHT22;3806;52.270;10.544;2023-02-28T11:22:55;20.10;16.50
7530;DHT22;3806;52.270;10.544;2023-02-28T11:25:34;20.60;16.60
7530;DHT22;3806;52.270;10.544;2023-02-28T11:28:02;21.10;16.50
7530;DHT22;3806;52.270;10.544;2023-02-28T11:30:39;22.30;15.70
7530;DHT22;3806;52.270;10.544;2023-02-28T11:35:49;21.50;15.30
7530;DHT22;3806;52.270;10.544;2023-02-28T11:38:15;20.30;15.80
7530;DHT22;3806;52.270;10.544;2023-02-28T11:43:52;20.40;15.90
7530;DHT22;3806;52.270;10.544;2023-02-28T11:51:56;21.70;16.30
7530;DHT22;3806;52.270;10.544;2023-02-28T11:57:41;23.60;15.50
7530;DHT22;3806;52.270;10.544;2023-02-28T12:00:32;24.10;14.60
7530;DHT22;3806;52.270;10.544;2023-02-28T12:03:49;22.80;14.10
7530;DHT22;3806;52.270;10.544;2023-02-28T12:06:31;20.60;14.70
7530;DHT22;3806;52.270;10.544;2023-02-28T12:09:30;18.50;15.80
7530;DHT22;3806;52.270;10.544;2023-02-28T12:12:15;17.00;17.00
7530;DHT22;3806;52.270;10.544;2023-02-28T12:17:30;14.60;18.50
7530;DHT22;3806;52.270;10.544;2023-02-28T12:20:24;13.70;19.20
7530;DHT22;3806;52.270;10.544;2023-02-28T12:25:38;12.30;20.80
7530;DHT22;3806;52.270;10.544;2023-02-28T12:28:09;11.80;21.60
7530;DHT22;3806;52.270;10.544;2023-02-28T12:30:41;11.50;22.10
7530;DHT22;3806;52.270;10.544;2023-02-28T12:33:10;11.10;22.50
7530;DHT22;3806;52.270;10.544;2023-02-28T12:35:45;10.90;23.00
7530;DHT22;3806;52.270;10.544;2023-02-28T12:41:15;10.30;23.50
7530;DHT22;3806;52.270;10.544;2023-02-28T12:43:46;10.10;23.90
7530;DHT22;3806;52.270;10.544;2023-02-28T12:46:24;10.10;24.00
7530;DHT22;3806;52.270;10.544;2023-02-28T12:48:56;10.20;24.00
7530;DHT22;3806;52.270;10.544;2023-02-28T12:51:22;10.40;23.80
7530;DHT22;3806;52.270;10.544;2023-02-28T12:54:16;10.70;23.40
7530;DHT22;3806;52.270;10.544;2023-02-28T12:57:34;11.10;23.10
7530;DHT22;3806;52.270;10.544;2023-02-28T12:59:45;11.40;22.60
7530;DHT22;3806;52.270;10.544;2023-02-28T13:02:33;11.70;22.20
7530;DHT22;3806;52.270;10.544;2023-02-28T13:08:25;12.20;21.70
7530;DHT22;3806;52.270;10.544;2023-02-28T13:10:54;12.30;21.40
7530;DHT22;3806;52.270;10.544;2023-02-28T13:13:25;12.40;21.50
7530;DHT22;3806;52.270;10.544;2023-02-28T13:16:02;12.50;21.60
7530;DHT22;3806;52.270;10.544;2023-02-28T13:18:34;12.50;21.60
7530;DHT22;3806;52.270;10.544;2023-02-28T13:21:03;12.50;21.60
7530;DHT22;3806;52.270;10.544;2023-02-28T13:26:21;12.80;21.40
7530;DHT22;3806;52.270;10.544;2023-02-28T13:28:58;13.00;21.30
7530;DHT22;3806;52.270;10.544;2023-02-28T13:31:24;13.00;21.10
7530;DHT22;3806;52.270;10.544;2023-02-28T13:36:31;13.30;21.00
7530;DHT22;3806;52.270;10.544;2023-02-28T13:38:57;13.30;20.90
7530;DHT22;3806;52.270;10.544;2023-02-28T13:46:28;13.60;20.80
7530;DHT22;3806;52.270;10.544;2023-02-28T13:48:53;13.60;20.80
7530;DHT22;3806;52.270;10.544;2023-02-28T13:54:31;13.70;20.80
7530;DHT22;3806;52.270;10.544;2023-02-28T14:00:21;13.70;20.80
7530;DHT22;3806;52.270;10.544;2023-02-28T14:03:07;13.70;20.60
7530;DHT22;3806;52.270;10.544;2023-02-28T14:05:36;13.50;20.50
7530;DHT22;3806;52.270;10.544;2023-02-28T14:08:11;13.40;20.50
7530;DHT22;3806;52.270;10.544;2023-02-28T14:10:45;13.30;20.40
7530;DHT22;3806;52.270;10.544;2023-02-28T14:13:42;13.30;20.70
7530;DHT22;3806;52.270;10.544;2023-02-28T14:16:19;13.20;21.00
7530;DHT22;3806;52.270;10.544;2023-02-28T14:19:05;13.10;21.60
7530;DHT22;3806;52.270;10.544;2023-02-28T14:21:38;12.90;21.10
7530;DHT22;3806;52.270;10.544;2023-02-28T14:36:17;11.90;22.20
7530;DHT22;3806;52.270;10.544;2023-02-28T14:38:47;11.70;22.30
7530;DHT22;3806;52.270;10.544;2023-02-28T14:43:50;11.50;22.70
7530;DHT22;3806;52.270;10.544;2023-02-28T14:46:16;11.30;22.80
7530;DHT22;3806;52.270;10.544;2023-02-28T14:48:48;11.10;22.80
7530;DHT22;3806;52.270;10.544;2023-02-28T14:51:22;11.00;23.00
7530;DHT22;3806;52.270;10.544;2023-02-28T14:53:51;10.80;23.20
7530;DHT22;3806;52.270;10.544;2023-02-28T14:56:22;10.60;23.50
7530;DHT22;3806;52.270;10.544;2023-02-28T14:58:53;10.30;23.90
7530;DHT22;3806;52.270;10.544;2023-02-28T15:01:21;10.20;24.50
7530;DHT22;3806;52.270;10.544;2023-02-28T15:03:47;9.90;25.40
7530;DHT22;3806;52.270;10.544;2023-02-28T15:06:17;9.60;25.60
7530;DHT22;3806;52.270;10.544;2023-02-28T15:08:44;9.40;25.90
7530;DHT22;3806;52.270;10.544;2023-02-28T15:11:18;9.30;26.40
7530;DHT22;3806;52.270;10.544;2023-02-28T15:13:50;9.20;26.70
7530;DHT22;3806;52.270;10.544;2023-02-28T15:16:19;9.10;26.90
7530;DHT22;3806;52.270;10.544;2023-02-28T15:18:54;8.90;26.70
7530;DHT22;3806;52.270;10.544;2023-02-28T15:21:28;8.80;27.30
7530;DHT22;3806;52.270;10.544;2023-02-28T15:26:25;8.50;27.50
7530;DHT22;3806;52.270;10.544;2023-02-28T15:28:57;8.40;27.80
7530;DHT22;3806;52.270;10.544;2023-02-28T15:31:28;8.30;28.20
7530;DHT22;3806;52.270;10.544;2023-02-28T15:34:03;8.20;28.00
7530;DHT22;3806;52.270;10.544;2023-02-28T15:36:31;8.10;28.30
7530;DHT22;3806;52.270;10.544;2023-02-28T15:38:59;8.00;28.50
7530;DHT22;3806;52.270;10.544;2023-02-28T15:41:30;7.90;29.00
7530;DHT22;3806;52.270;10.544;2023-02-28T15:44:16;7.80;29.00
7530;DHT22;3806;52.270;10.544;2023-02-28T15:46:52;7.80;29.30
7530;DHT22;3806;52.270;10.544;2023-02-28T15:49:20;7.70;29.40
7530;DHT22;3806;52.270;10.544;2023-02-28T15:51:49;7.70;29.10
7530;DHT22;3806;52.270;10.544;2023-02-28T15:54:24;7.70;29.10
7530;DHT22;3806;52.270;10.544;2023-02-28T15:56:51;7.60;29.20
7530;DHT22;3806;52.270;10.544;2023-02-28T15:59:21;7.50;29.30
7530;DHT22;3806;52.270;10.544;2023-02-28T16:04:59;7.50;29.50
7530;DHT22;3806;52.270;10.544;2023-02-28T16:07:25;7.50;29.50
7530;DHT22;3806;52.270;10.544;2023-02-28T16:09:51;7.40;29.60
7530;DHT22;3806;52.270;10.544;2023-02-28T16:12:16;7.30;29.70
7530;DHT22;3806;52.270;10.544;2023-02-28T16:14:42;7.30;29.90
7530;DHT22;3806;52.270;10.544;2023-02-28T16:17:20;7.20;30.00
7530;DHT22;3806;52.270;10.544;2023-02-28T16:19:47;7.20;30.00
7530;DHT22;3806;52.270;10.544;2023-02-28T16:22:12;7.10;30.10
7530;DHT22;3806;52.270;10.544;2023-02-28T16:24:38;7.10;30.30
7530;DHT22;3806;52.270;10.544;2023-02-28T16:27:05;7.00;30.50
7530;DHT22;3806;52.270;10.544;2023-02-28T16:29:34;7.00;30.80
7530;DHT22;3806;52.270;10.544;2023-02-28T16:32:01;7.00;31.00
7530;DHT22;3806;52.270;10.544;2023-02-28T16:34:29;6.90;31.10
7530;DHT22;3806;52.270;10.544;2023-02-28T16:36:54;6.90;31.10
7530;DHT22;3806;52.270;10.544;2023-02-28T16:39:20;6.90;31.30
7530;DHT22;3806;52.270;10.544;2023-02-28T16:41:47;6.80;31.30
7530;DHT22;3806;52.270;10.544;2023-02-28T16:44:28;6.80;31.30
7530;DHT22;3806;52.270;10.544;2023-02-28T16:46:54;6.70;31.40
7530;DHT22;3806;52.270;10.544;2023-02-28T16:49:20;6.60;31.60
7530;DHT22;3806;52.270;10.544;2023-02-28T16:51:46;6.40;31.80
7530;DHT22;3806;52.270;10.544;2023-02-28T16:54:11;6.50;31.90
7530;DHT22;3806;52.270;10.544;2023-02-28T16:56:43;6.50;32.00
7530;DHT22;3806;52.270;10.544;2023-02-28T16:59:10;6.40;32.20
7530;DHT22;3806;52.270;10.544;2023-02-28T17:01:36;6.40;32.40
7530;DHT22;3806;52.270;10.544;2023-02-28T17:04:05;6.30;32.60
7530;DHT22;3806;52.270;10.544;2023-02-28T17:06:31;6.30;32.70
7530;DHT22;3806;52.270;10.544;2023-02-28T17:08:58;6.20;32.70
7530;DHT22;3806;52.270;10.544;2023-02-28T17:11:27;6.20;32.80
7530;DHT22;3806;52.270;10.544;2023-02-28T17:13:53;6.20;33.40
7530;DHT22;3806;52.270;10.544;2023-02-28T17:16:28;6.10;33.00
7530;DHT22;3806;52.270;10.544;2023-02-28T17:18:58;6.10;33.00
7530;DHT22;3806;52.270;10.544;2023-02-28T17:21:24;6.00;33.20
7530;DHT22;3806;52.270;10.544;2023-02-28T17:23:50;6.00;33.60
7530;DHT22;3806;52.270;10.544;2023-02-28T17:26:19;5.90;33.70
7530;DHT22;3806;52.270;10.544;2023-02-28T17:28:51;5.90;33.70
7530;DHT22;3806;52.270;10.544;2023-02-28T17:31:17;5.80;33.80
7530;DHT22;3806;52.270;10.544;2023-02-28T17:33:44;5.80;34.00
7530;DHT22;3806;52.270;10.544;2023-02-28T17:36:13;5.80;34.40
7530;DHT22;3806;52.270;10.544;2023-02-28T17:38:40;5.70;34.90
7530;DHT22;3806;52.270;10.544;2023-02-28T17:41:09;5.70;35.20
7530;DHT22;3806;52.270;10.544;2023-02-28T17:43:35;5.60;35.50
7530;DHT22;3806;52.270;10.544;2023-02-28T17:46:03;5.60;35.60
7530;DHT22;3806;52.270;10.544;2023-02-28T17:48:30;5.50;35.60
7530;DHT22;3806;52.270;10.544;2023-02-28T17:50:59;5.50;36.00
7530;DHT22;3806;52.270;10.544;2023-02-28T17:53:25;5.50;36.10
7530;DHT22;3806;52.270;10.544;2023-02-28T17:55:52;5.40;35.90